sensor_id;sensor_type;location;lat;lon;timestamp;temperature;humidity
34877;DHT22;21086;44.780;17.194;2023-12-29T00:02:13;5.40;99.90
34877;DHT22;21086;44.780;17.194;2023-12-29T00:04:40;5.40;99.90
34877;DHT22;21086;44.780;17.194;2023-12-29T00:07:09;5.40;99.90
34877;DHT22;21086;44.780;17.194;2023-12-29T00:09:36;5.50;99.90
34877;DHT22;21086;44.780;17.194;2023-12-29T00:12:08;5.20;99.90
34877;DHT22;21086;44.780;17.194;2023-12-29T00:14:41;5.10;99.90
34877;DHT22;21086;44.780;17.194;2023-12-29T00:17:09;5.10;99.90
34877;DHT22;21086;44.780;17.194;2023-12-29T00:19:36;5.10;99.90
34877;DHT22;21086;44.780;17.194;2023-12-29T00:22:04;5.20;99.90
34877;DHT22;21086;44.780;17.194;2023-12-29T00:24:31;5.20;99.90
34877;DHT22;21086;44.780;17.194;2023-12-29T00:26:58;5.10;99.90
34877;DHT22;21086;44.780;17.194;2023-12-29T00:29:26;5.20;99.90
34877;DHT22;21086;44.780;17.194;2023-12-29T00:31:59;5.30;99.90
34877;DHT22;21086;44.780;17.194;2023-12-29T00:34:27;5.20;99.90
34877;DHT22;21086;44.780;17.194;2023-12-29T00:36:55;5.20;99.90
34877;DHT22;21086;44.780;17.194;2023-12-29T00:39:22;5.30;99.90
34877;DHT22;21086;44.780;17.194;2023-12-29T00:41:56;5.10;99.90
34877;DHT22;21086;44.780;17.194;2023-12-29T00:44:23;5.10;99.90
34877;DHT22;21086;44.780;17.194;2023-12-29T00:46:50;5.00;99.90
34877;DHT22;21086;44.780;17.194;2023-12-29T00:49:17;5.10;99.90
34877;DHT22;21086;44.780;17.194;2023-12-29T00:51:46;5.20;99.90
34877;DHT22;21086;44.780;17.194;2023-12-29T00:54:14;5.20;99.90
34877;DHT22;21086;44.780;17.194;2023-12-29T00:56:41;5.10;99.90
34877;DHT22;21086;44.780;17.194;2023-12-29T00:59:08;5.00;99.90
34877;DHT22;21086;44.780;17.194;2023-12-29T01:01:35;4.90;99.90
34877;DHT22;21086;44.780;17.194;2023-12-29T01:04:03;4.90;99.90
34877;DHT22;21086;44.780;17.194;2023-12-29T01:06:30;4.90;99.90
34877;DHT22;21086;44.780;17.194;2023-12-29T01:08:57;4.80;99.90
34877;DHT22;21086;44.780;17.194;2023-12-29T01:11:24;4.70;99.90
34877;DHT22;21086;44.780;17.194;2023-12-29T01:13:51;4.80;99.90
34877;DHT22;21086;44.780;17.194;2023-12-29T01:16:18;4.70;99.90
34877;DHT22;21086;44.780;17.194;2023-12-29T01:18:45;4.60;99.90
34877;DHT22;21086;44.780;17.194;2023-12-29T01:21:13;4.60;99.90
34877;DHT22;21086;44.780;17.194;2023-12-29T01:23:40;4.60;99.90
34877;DHT22;21086;44.780;17.194;2023-12-29T01:26:07;4.50;99.90
34877;DHT22;21086;44.780;17.194;2023-12-29T01:28:34;4.60;99.90
34877;DHT22;21086;44.780;17.194;2023-12-29T01:31:01;4.60;99.90
34877;DHT22;21086;44.780;17.194;2023-12-29T01:33:28;4.50;99.90
34877;DHT22;21086;44.780;17.194;2023-12-29T01:35:55;4.50;99.90
34877;DHT22;21086;44.780;17.194;2023-12-29T01:38:24;4.50;99.90
34877;DHT22;21086;44.780;17.194;2023-12-29T01:40:51;4.60;99.90
34877;DHT22;21086;44.780;17.194;2023-12-29T01:43:18;4.80;99.90
34877;DHT22;21086;44.780;17.194;2023-12-29T01:45:45;1.40;99.90
34877;DHT22;21086;44.780;17.194;2023-12-29T01:48:24;4.60;99.90
34877;DHT22;21086;44.780;17.194;2023-12-29T01:50:52;4.60;99.90
34877;DHT22;21086;44.780;17.194;2023-12-29T01:53:20;4.50;99.90
34877;DHT22;21086;44.780;17.194;2023-12-29T01:55:59;4.60;99.90
34877;DHT22;21086;44.780;17.194;2023-12-29T01:58:28;4.50;99.90
34877;DHT22;21086;44.780;17.194;2023-12-29T02:00:55;4.50;99.90
34877;DHT22;21086;44.780;17.194;2023-12-29T02:03:22;4.30;99.90
34877;DHT22;21086;44.780;17.194;2023-12-29T02:05:50;4.20;99.90
34877;DHT22;21086;44.780;17.194;2023-12-29T02:08:17;4.50;99.90
34877;DHT22;21086;44.780;17.194;2023-12-29T02:10:44;4.40;99.90
34877;DHT22;21086;44.780;17.194;2023-12-29T02:13:11;4.40;99.90
34877;DHT22;21086;44.780;17.194;2023-12-29T02:15:39;4.50;99.90
34877;DHT22;21086;44.780;17.194;2023-12-29T02:18:08;4.50;99.90
34877;DHT22;21086;44.780;17.194;2023-12-29T02:20:39;4.60;99.90
34877;DHT22;21086;44.780;17.194;2023-12-29T02:23:05;4.50;99.90
34877;DHT22;21086;44.780;17.194;2023-12-29T02:25:33;4.50;99.90
34877;DHT22;21086;44.780;17.194;2023-12-29T02:28:22;4.40;99.90
34877;DHT22;21086;44.780;17.194;2023-12-29T02:31:11;4.50;99.90
34877;DHT22;21086;44.780;17.194;2023-12-29T02:33:41;4.60;99.90
34877;DHT22;21086;44.780;17.194;2023-12-29T02:36:10;4.60;99.90
34877;DHT22;21086;44.780;17.194;2023-12-29T02:38:39;4.70;99.90
34877;DHT22;21086;44.780;17.194;2023-12-29T02:41:07;4.60;99.90
34877;DHT22;21086;44.780;17.194;2023-12-29T02:43:34;4.60;99.90
34877;DHT22;21086;44.780;17.194;2023-12-29T02:46:01;4.60;99.90
34877;DHT22;21086;44.780;17.194;2023-12-29T02:48:27;6.10;99.90
34877;DHT22;21086;44.780;17.194;2023-12-29T02:50:55;4.60;99.90
34877;DHT22;21086;44.780;17.194;2023-12-29T02:53:22;4.60;99.90
34877;DHT22;21086;44.780;17.194;2023-12-29T02:55:49;4.60;99.90
34877;DHT22;21086;44.780;17.194;2023-12-29T02:58:16;4.70;99.90
34877;DHT22;21086;44.780;17.194;2023-12-29T03:00:43;4.60;99.90
34877;DHT22;21086;44.780;17.194;2023-12-29T03:03:10;4.60;99.90
34877;DHT22;21086;44.780;17.194;2023-12-29T03:05:37;4.70;99.90
34877;DHT22;21086;44.780;17.194;2023-12-29T03:08:05;4.70;99.90
34877;DHT22;21086;44.780;17.194;2023-12-29T03:10:32;4.80;99.90
34877;DHT22;21086;44.780;17.194;2023-12-29T03:12:59;4.90;99.90
34877;DHT22;21086;44.780;17.194;2023-12-29T03:15:26;4.90;99.90
34877;DHT22;21086;44.780;17.194;2023-12-29T03:17:53;4.90;99.90
34877;DHT22;21086;44.780;17.194;2023-12-29T03:20:19;4.80;99.90
34877;DHT22;21086;44.780;17.194;2023-12-29T03:22:47;4.80;99.90
34877;DHT22;21086;44.780;17.194;2023-12-29T03:25:14;4.90;99.90
34877;DHT22;21086;44.780;17.194;2023-12-29T03:27:41;4.90;99.90
34877;DHT22;21086;44.780;17.194;2023-12-29T03:30:09;4.90;99.90
34877;DHT22;21086;44.780;17.194;2023-12-29T03:32:36;4.90;99.90
34877;DHT22;21086;44.780;17.194;2023-12-29T03:35:04;5.00;99.90
34877;DHT22;21086;44.780;17.194;2023-12-29T03:37:31;5.10;99.90
34877;DHT22;21086;44.780;17.194;2023-12-29T03:39:58;5.10;99.90
34877;DHT22;21086;44.780;17.194;2023-12-29T03:42:25;5.20;99.90
34877;DHT22;21086;44.780;17.194;2023-12-29T03:44:52;5.20;99.90
34877;DHT22;21086;44.780;17.194;2023-12-29T03:47:19;5.30;99.90
34877;DHT22;21086;44.780;17.194;2023-12-29T03:49:46;5.40;99.90
34877;DHT22;21086;44.780;17.194;2023-12-29T03:52:13;5.40;99.90
34877;DHT22;21086;44.780;17.194;2023-12-29T03:54:40;5.60;99.90
34877;DHT22;21086;44.780;17.194;2023-12-29T03:57:07;5.60;99.90
34877;DHT22;21086;44.780;17.194;2023-12-29T03:59:37;5.50;99.90
34877;DHT22;21086;44.780;17.194;2023-12-29T04:02:04;5.50;99.90
34877;DHT22;21086;44.780;17.194;2023-12-29T04:04:31;5.60;99.90
34877;DHT22;21086;44.780;17.194;2023-12-29T04:06:58;5.70;99.90
34877;DHT22;21086;44.780;17.194;2023-12-29T04:09:25;5.70;99.90
34877;DHT22;21086;44.780;17.194;2023-12-29T04:11:52;5.60;99.90
34877;DHT22;21086;44.780;17.194;2023-12-29T04:14:19;5.70;99.90
34877;DHT22;21086;44.780;17.194;2023-12-29T04:16:46;5.70;99.90
34877;DHT22;21086;44.780;17.194;2023-12-29T04:19:13;5.80;99.90
34877;DHT22;21086;44.780;17.194;2023-12-29T04:21:42;5.70;99.90
34877;DHT22;21086;44.780;17.194;2023-12-29T04:24:09;5.80;99.90
34877;DHT22;21086;44.780;17.194;2023-12-29T04:26:36;5.80;99.90
34877;DHT22;21086;44.780;17.194;2023-12-29T04:29:03;5.80;99.90
34877;DHT22;21086;44.780;17.194;2023-12-29T04:31:30;5.80;99.90
34877;DHT22;21086;44.780;17.194;2023-12-29T04:33:58;5.80;99.90
34877;DHT22;21086;44.780;17.194;2023-12-29T04:36:25;5.80;99.90
34877;DHT22;21086;44.780;17.194;2023-12-29T04:38:52;5.80;99.90
34877;DHT22;21086;44.780;17.194;2023-12-29T04:41:18;5.90;99.90
34877;DHT22;21086;44.780;17.194;2023-12-29T04:43:45;6.00;99.90
34877;DHT22;21086;44.780;17.194;2023-12-29T04:46:12;5.90;99.90
34877;DHT22;21086;44.780;17.194;2023-12-29T04:48:39;5.90;99.90
34877;DHT22;21086;44.780;17.194;2023-12-29T04:51:07;5.90;99.90
34877;DHT22;21086;44.780;17.194;2023-12-29T04:53:34;6.00;99.90
34877;DHT22;21086;44.780;17.194;2023-12-29T04:56:01;6.00;99.90
34877;DHT22;21086;44.780;17.194;2023-12-29T04:58:28;6.00;99.90
34877;DHT22;21086;44.780;17.194;2023-12-29T05:00:54;6.10;99.90
34877;DHT22;21086;44.780;17.194;2023-12-29T05:03:22;6.00;99.90
34877;DHT22;21086;44.780;17.194;2023-12-29T05:05:49;6.00;99.90
34877;DHT22;21086;44.780;17.194;2023-12-29T05:08:16;6.00;99.90
34877;DHT22;21086;44.780;17.194;2023-12-29T05:10:43;6.10;99.90
34877;DHT22;21086;44.780;17.194;2023-12-29T05:13:10;6.10;99.90
34877;DHT22;21086;44.780;17.194;2023-12-29T05:15:37;6.20;99.90
34877;DHT22;21086;44.780;17.194;2023-12-29T05:18:04;6.30;99.90
34877;DHT22;21086;44.780;17.194;2023-12-29T05:20:32;6.40;99.90
34877;DHT22;21086;44.780;17.194;2023-12-29T05:23:00;6.30;99.90
34877;DHT22;21086;44.780;17.194;2023-12-29T05:25:27;6.30;99.90
34877;DHT22;21086;44.780;17.194;2023-12-29T05:27:54;6.20;99.90
34877;DHT22;21086;44.780;17.194;2023-12-29T05:30:21;6.20;99.90
34877;DHT22;21086;44.780;17.194;2023-12-29T05:32:48;6.40;99.90
34877;DHT22;21086;44.780;17.194;2023-12-29T05:35:16;6.50;99.90
34877;DHT22;21086;44.780;17.194;2023-12-29T05:37:42;6.50;99.90
34877;DHT22;21086;44.780;17.194;2023-12-29T05:40:10;6.70;99.90
34877;DHT22;21086;44.780;17.194;2023-12-29T05:42:37;6.70;99.90
34877;DHT22;21086;44.780;17.194;2023-12-29T05:45:04;6.60;99.90
34877;DHT22;21086;44.780;17.194;2023-12-29T05:47:31;6.60;99.90
34877;DHT22;21086;44.780;17.194;2023-12-29T05:49:58;6.50;99.90
34877;DHT22;21086;44.780;17.194;2023-12-29T05:52:26;6.40;99.90
34877;DHT22;21086;44.780;17.194;2023-12-29T05:54:53;6.40;99.90
34877;DHT22;21086;44.780;17.194;2023-12-29T05:57:20;6.50;99.90
34877;DHT22;21086;44.780;17.194;2023-12-29T05:59:47;6.50;99.90
34877;DHT22;21086;44.780;17.194;2023-12-29T06:02:14;6.50;99.90
34877;DHT22;21086;44.780;17.194;2023-12-29T06:04:41;6.50;99.90
34877;DHT22;21086;44.780;17.194;2023-12-29T06:07:08;6.60;99.90
34877;DHT22;21086;44.780;17.194;2023-12-29T06:09:36;6.60;99.90
34877;DHT22;21086;44.780;17.194;2023-12-29T06:12:03;6.60;99.90
34877;DHT22;21086;44.780;17.194;2023-12-29T06:14:30;6.60;99.90
34877;DHT22;21086;44.780;17.194;2023-12-29T06:16:57;6.60;99.90
34877;DHT22;21086;44.780;17.194;2023-12-29T06:19:24;6.60;99.90
34877;DHT22;21086;44.780;17.194;2023-12-29T06:21:51;6.80;99.90
34877;DHT22;21086;44.780;17.194;2023-12-29T06:24:18;6.80;99.90
34877;DHT22;21086;44.780;17.194;2023-12-29T06:26:45;6.90;99.90
34877;DHT22;21086;44.780;17.194;2023-12-29T06:29:12;7.00;99.90
34877;DHT22;21086;44.780;17.194;2023-12-29T06:31:42;7.00;99.90
34877;DHT22;21086;44.780;17.194;2023-12-29T06:34:10;6.90;99.90
34877;DHT22;21086;44.780;17.194;2023-12-29T06:36:37;6.90;99.90
34877;DHT22;21086;44.780;17.194;2023-12-29T06:39:04;7.00;99.90
34877;DHT22;21086;44.780;17.194;2023-12-29T06:41:31;7.10;99.90
34877;DHT22;21086;44.780;17.194;2023-12-29T06:43:58;7.20;99.90
34877;DHT22;21086;44.780;17.194;2023-12-29T06:46:26;7.20;99.90
34877;DHT22;21086;44.780;17.194;2023-12-29T06:48:53;7.20;99.90
34877;DHT22;21086;44.780;17.194;2023-12-29T06:51:20;7.30;99.90
34877;DHT22;21086;44.780;17.194;2023-12-29T06:53:49;7.40;99.90
34877;DHT22;21086;44.780;17.194;2023-12-29T06:56:16;7.50;99.90
34877;DHT22;21086;44.780;17.194;2023-12-29T06:58:45;7.60;99.90
34877;DHT22;21086;44.780;17.194;2023-12-29T07:01:12;7.60;99.90
34877;DHT22;21086;44.780;17.194;2023-12-29T07:03:39;7.70;99.90
34877;DHT22;21086;44.780;17.194;2023-12-29T07:06:07;7.80;99.90
34877;DHT22;21086;44.780;17.194;2023-12-29T07:08:34;7.80;99.90
34877;DHT22;21086;44.780;17.194;2023-12-29T07:11:01;7.80;99.90
34877;DHT22;21086;44.780;17.194;2023-12-29T07:13:28;7.80;99.90
34877;DHT22;21086;44.780;17.194;2023-12-29T07:15:55;7.90;99.90
34877;DHT22;21086;44.780;17.194;2023-12-29T07:18:22;8.00;99.90
34877;DHT22;21086;44.780;17.194;2023-12-29T07:20:49;8.00;99.90
34877;DHT22;21086;44.780;17.194;2023-12-29T07:23:16;8.00;99.90
34877;DHT22;21086;44.780;17.194;2023-12-29T07:25:43;8.20;99.90
34877;DHT22;21086;44.780;17.194;2023-12-29T07:28:10;8.20;99.90
34877;DHT22;21086;44.780;17.194;2023-12-29T07:30:37;8.30;99.90
34877;DHT22;21086;44.780;17.194;2023-12-29T07:33:04;8.30;99.90
34877;DHT22;21086;44.780;17.194;2023-12-29T07:35:31;8.50;99.90
34877;DHT22;21086;44.780;17.194;2023-12-29T07:37:59;8.50;99.90
34877;DHT22;21086;44.780;17.194;2023-12-29T07:40:26;8.40;99.90
34877;DHT22;21086;44.780;17.194;2023-12-29T07:42:53;8.50;99.90
34877;DHT22;21086;44.780;17.194;2023-12-29T07:45:20;8.50;99.90
34877;DHT22;21086;44.780;17.194;2023-12-29T07:47:47;8.60;99.90
34877;DHT22;21086;44.780;17.194;2023-12-29T07:50:14;8.80;99.90
34877;DHT22;21086;44.780;17.194;2023-12-29T07:52:43;9.00;99.90
34877;DHT22;21086;44.780;17.194;2023-12-29T07:55:10;9.00;99.90
34877;DHT22;21086;44.780;17.194;2023-12-29T07:57:38;9.10;99.90
34877;DHT22;21086;44.780;17.194;2023-12-29T08:00:05;9.10;99.90
34877;DHT22;21086;44.780;17.194;2023-12-29T08:02:33;9.20;99.90
34877;DHT22;21086;44.780;17.194;2023-12-29T08:05:00;9.20;99.90
34877;DHT22;21086;44.780;17.194;2023-12-29T08:07:27;9.30;99.90
34877;DHT22;21086;44.780;17.194;2023-12-29T08:09:54;9.50;99.90
34877;DHT22;21086;44.780;17.194;2023-12-29T08:12:21;9.60;99.90
34877;DHT22;21086;44.780;17.194;2023-12-29T08:14:47;9.70;99.90
34877;DHT22;21086;44.780;17.194;2023-12-29T08:17:14;9.80;99.90
34877;DHT22;21086;44.780;17.194;2023-12-29T08:19:41;9.90;99.90
34877;DHT22;21086;44.780;17.194;2023-12-29T08:22:08;9.90;99.90
34877;DHT22;21086;44.780;17.194;2023-12-29T08:24:35;9.90;99.90
34877;DHT22;21086;44.780;17.194;2023-12-29T08:27:03;9.90;99.90
34877;DHT22;21086;44.780;17.194;2023-12-29T08:29:30;10.00;99.90
34877;DHT22;21086;44.780;17.194;2023-12-29T08:31:58;10.00;99.90
34877;DHT22;21086;44.780;17.194;2023-12-29T08:34:25;9.90;99.90
34877;DHT22;21086;44.780;17.194;2023-12-29T08:36:56;10.00;99.90
34877;DHT22;21086;44.780;17.194;2023-12-29T08:39:23;10.10;99.90
34877;DHT22;21086;44.780;17.194;2023-12-29T08:41:51;10.10;99.90
34877;DHT22;21086;44.780;17.194;2023-12-29T08:44:18;10.20;99.90
34877;DHT22;21086;44.780;17.194;2023-12-29T08:46:45;10.30;99.90
34877;DHT22;21086;44.780;17.194;2023-12-29T08:49:12;11.90;99.90
34877;DHT22;21086;44.780;17.194;2023-12-29T08:51:39;10.30;99.90
34877;DHT22;21086;44.780;17.194;2023-12-29T08:54:06;10.40;99.90
34877;DHT22;21086;44.780;17.194;2023-12-29T08:56:34;10.40;99.90
34877;DHT22;21086;44.780;17.194;2023-12-29T08:59:01;10.50;99.90
34877;DHT22;21086;44.780;17.194;2023-12-29T09:01:28;10.60;99.90
34877;DHT22;21086;44.780;17.194;2023-12-29T09:03:55;10.70;99.90
34877;DHT22;21086;44.780;17.194;2023-12-29T09:06:22;10.80;99.90
34877;DHT22;21086;44.780;17.194;2023-12-29T09:08:49;10.90;99.90
34877;DHT22;21086;44.780;17.194;2023-12-29T09:11:16;11.00;99.90
34877;DHT22;21086;44.780;17.194;2023-12-29T09:13:43;11.20;99.90
34877;DHT22;21086;44.780;17.194;2023-12-29T09:16:10;11.50;99.90
34877;DHT22;21086;44.780;17.194;2023-12-29T09:18:37;11.80;99.90
34877;DHT22;21086;44.780;17.194;2023-12-29T09:21:04;12.40;99.90
34877;DHT22;21086;44.780;17.194;2023-12-29T09:23:31;12.80;99.90
34877;DHT22;21086;44.780;17.194;2023-12-29T09:25:59;13.00;99.90
34877;DHT22;21086;44.780;17.194;2023-12-29T09:28:26;13.20;99.90
34877;DHT22;21086;44.780;17.194;2023-12-29T09:30:53;13.50;99.90
34877;DHT22;21086;44.780;17.194;2023-12-29T09:33:20;14.00;99.90
34877;DHT22;21086;44.780;17.194;2023-12-29T09:35:47;13.80;99.90
34877;DHT22;21086;44.780;17.194;2023-12-29T09:38:14;14.70;99.90
34877;DHT22;21086;44.780;17.194;2023-12-29T09:40:41;15.30;99.90
34877;DHT22;21086;44.780;17.194;2023-12-29T09:43:09;16.00;99.90
34877;DHT22;21086;44.780;17.194;2023-12-29T09:45:37;16.20;99.90
34877;DHT22;21086;44.780;17.194;2023-12-29T09:48:07;16.40;99.90
34877;DHT22;21086;44.780;17.194;2023-12-29T09:50:36;16.90;99.90
34877;DHT22;21086;44.780;17.194;2023-12-29T09:53:04;17.10;99.90
34877;DHT22;21086;44.780;17.194;2023-12-29T09:55:32;17.40;99.90
34877;DHT22;21086;44.780;17.194;2023-12-29T09:58:01;17.40;99.90
34877;DHT22;21086;44.780;17.194;2023-12-29T10:00:29;17.40;99.90
34877;DHT22;21086;44.780;17.194;2023-12-29T10:02:56;17.30;99.90
34877;DHT22;21086;44.780;17.194;2023-12-29T10:05:24;17.20;99.90
34877;DHT22;21086;44.780;17.194;2023-12-29T10:07:53;17.10;99.90
34877;DHT22;21086;44.780;17.194;2023-12-29T10:10:20;17.30;99.90
34877;DHT22;21086;44.780;17.194;2023-12-29T10:12:51;17.40;99.90
34877;DHT22;21086;44.780;17.194;2023-12-29T10:18:37;18.00;99.90
34877;DHT22;21086;44.780;17.194;2023-12-29T10:26:20;17.80;99.90
34877;DHT22;21086;44.780;17.194;2023-12-29T10:28:47;17.60;99.90
34877;DHT22;21086;44.780;17.194;2023-12-29T10:31:15;17.40;99.90
34877;DHT22;21086;44.780;17.194;2023-12-29T10:33:45;17.20;99.90
34877;DHT22;21086;44.780;17.194;2023-12-29T10:36:17;17.00;99.90
34877;DHT22;21086;44.780;17.194;2023-12-29T10:38:44;16.90;99.90
34877;DHT22;21086;44.780;17.194;2023-12-29T10:41:14;16.80;99.90
34877;DHT22;21086;44.780;17.194;2023-12-29T10:43:42;16.50;99.90
34877;DHT22;21086;44.780;17.194;2023-12-29T10:46:11;16.40;99.90
34877;DHT22;21086;44.780;17.194;2023-12-29T10:48:38;16.30;99.90
34877;DHT22;21086;44.780;17.194;2023-12-29T10:51:06;16.20;99.90
34877;DHT22;21086;44.780;17.194;2023-12-29T10:53:34;16.10;99.90
34877;DHT22;21086;44.780;17.194;2023-12-29T10:56:17;16.10;99.90
34877;DHT22;21086;44.780;17.194;2023-12-29T10:58:57;16.20;99.90
34877;DHT22;21086;44.780;17.194;2023-12-29T11:01:26;16.20;99.90
34877;DHT22;21086;44.780;17.194;2023-12-29T11:04:04;16.20;99.90
34877;DHT22;21086;44.780;17.194;2023-12-29T11:06:45;16.20;99.90
34877;DHT22;21086;44.780;17.194;2023-12-29T11:09:30;16.10;99.90
34877;DHT22;21086;44.780;17.194;2023-12-29T11:12:03;16.00;99.90
34877;DHT22;21086;44.780;17.194;2023-12-29T11:14:31;15.90;99.90
34877;DHT22;21086;44.780;17.194;2023-12-29T11:16:59;15.80;99.90
34877;DHT22;21086;44.780;17.194;2023-12-29T11:19:27;15.70;99.90
34877;DHT22;21086;44.780;17.194;2023-12-29T11:21:56;15.70;99.90
34877;DHT22;21086;44.780;17.194;2023-12-29T11:24:24;15.80;99.90
34877;DHT22;21086;44.780;17.194;2023-12-29T11:27:06;15.90;99.90
34877;DHT22;21086;44.780;17.194;2023-12-29T11:29:35;16.00;99.90
34877;DHT22;21086;44.780;17.194;2023-12-29T11:32:04;16.30;99.90
34877;DHT22;21086;44.780;17.194;2023-12-29T11:34:37;16.90;99.90
34877;DHT22;21086;44.780;17.194;2023-12-29T11:37:28;17.10;99.90
34877;DHT22;21086;44.780;17.194;2023-12-29T11:42:40;16.70;99.90
34877;DHT22;21086;44.780;17.194;2023-12-29T11:45:31;16.50;99.90
34877;DHT22;21086;44.780;17.194;2023-12-29T11:48:01;16.30;99.90
34877;DHT22;21086;44.780;17.194;2023-12-29T11:52:59;16.00;99.90
34877;DHT22;21086;44.780;17.194;2023-12-29T11:55:37;15.90;99.90
34877;DHT22;21086;44.780;17.194;2023-12-29T11:58:26;15.80;99.90
34877;DHT22;21086;44.780;17.194;2023-12-29T12:00:56;15.70;99.90
34877;DHT22;21086;44.780;17.194;2023-12-29T12:03:25;15.60;99.90
34877;DHT22;21086;44.780;17.194;2023-12-29T12:05:54;15.50;99.90
34877;DHT22;21086;44.780;17.194;2023-12-29T12:08:33;15.20;99.90
34877;DHT22;21086;44.780;17.194;2023-12-29T12:11:43;15.00;99.90
34877;DHT22;21086;44.780;17.194;2023-12-29T12:14:10;14.80;99.90
34877;DHT22;21086;44.780;17.194;2023-12-29T12:16:49;14.50;99.90
34877;DHT22;21086;44.780;17.194;2023-12-29T12:19:17;14.30;99.90
34877;DHT22;21086;44.780;17.194;2023-12-29T12:21:48;14.30;99.90
34877;DHT22;21086;44.780;17.194;2023-12-29T12:24:18;14.50;99.90
34877;DHT22;21086;44.780;17.194;2023-12-29T12:26:46;14.50;99.90
34877;DHT22;21086;44.780;17.194;2023-12-29T12:29:14;14.50;99.90
34877;DHT22;21086;44.780;17.194;2023-12-29T12:31:57;14.60;99.90
34877;DHT22;21086;44.780;17.194;2023-12-29T12:34:24;14.60;99.90
34877;DHT22;21086;44.780;17.194;2023-12-29T12:36:53;14.60;99.90
34877;DHT22;21086;44.780;17.194;2023-12-29T12:39:21;14.60;99.90
34877;DHT22;21086;44.780;17.194;2023-12-29T12:41:50;14.60;99.90
34877;DHT22;21086;44.780;17.194;2023-12-29T12:44:17;14.60;99.90
34877;DHT22;21086;44.780;17.194;2023-12-29T12:49:15;14.40;99.90
34877;DHT22;21086;44.780;17.194;2023-12-29T12:51:43;14.40;99.90
34877;DHT22;21086;44.780;17.194;2023-12-29T12:54:11;14.50;99.90
34877;DHT22;21086;44.780;17.194;2023-12-29T12:56:41;14.50;99.90
34877;DHT22;21086;44.780;17.194;2023-12-29T12:59:08;14.50;99.90
34877;DHT22;21086;44.780;17.194;2023-12-29T13:01:37;14.50;99.90
34877;DHT22;21086;44.780;17.194;2023-12-29T13:04:05;14.70;99.90
34877;DHT22;21086;44.780;17.194;2023-12-29T13:06:34;14.60;99.90
34877;DHT22;21086;44.780;17.194;2023-12-29T13:09:03;14.60;99.90
34877;DHT22;21086;44.780;17.194;2023-12-29T13:11:31;14.50;99.90
34877;DHT22;21086;44.780;17.194;2023-12-29T13:13:58;14.50;99.90
34877;DHT22;21086;44.780;17.194;2023-12-29T13:16:37;14.50;99.90
34877;DHT22;21086;44.780;17.194;2023-12-29T13:19:16;14.40;99.90
34877;DHT22;21086;44.780;17.194;2023-12-29T13:21:50;14.40;99.90
34877;DHT22;21086;44.780;17.194;2023-12-29T13:24:18;14.40;99.90
34877;DHT22;21086;44.780;17.194;2023-12-29T13:26:45;14.40;99.90
34877;DHT22;21086;44.780;17.194;2023-12-29T13:29:20;14.40;99.90
34877;DHT22;21086;44.780;17.194;2023-12-29T13:31:54;14.40;99.90
34877;DHT22;21086;44.780;17.194;2023-12-29T13:34:48;14.30;99.90
34877;DHT22;21086;44.780;17.194;2023-12-29T13:42:50;14.30;99.90
34877;DHT22;21086;44.780;17.194;2023-12-29T13:45:20;14.30;99.90
34877;DHT22;21086;44.780;17.194;2023-12-29T13:47:48;14.20;99.90
34877;DHT22;21086;44.780;17.194;2023-12-29T13:50:15;14.20;99.90
34877;DHT22;21086;44.780;17.194;2023-12-29T13:52:42;14.20;99.90
34877;DHT22;21086;44.780;17.194;2023-12-29T13:55:09;14.20;99.90
34877;DHT22;21086;44.780;17.194;2023-12-29T13:57:36;14.10;99.90
34877;DHT22;21086;44.780;17.194;2023-12-29T14:02:45;14.10;99.90
34877;DHT22;21086;44.780;17.194;2023-12-29T14:05:35;14.00;99.90
34877;DHT22;21086;44.780;17.194;2023-12-29T14:10:33;13.90;99.90
34877;DHT22;21086;44.780;17.194;2023-12-29T14:20:39;13.90;99.90
34877;DHT22;21086;44.780;17.194;2023-12-29T14:23:07;13.90;99.90
34877;DHT22;21086;44.780;17.194;2023-12-29T14:25:35;13.90;99.90
34877;DHT22;21086;44.780;17.194;2023-12-29T14:28:04;13.80;99.90
34877;DHT22;21086;44.780;17.194;2023-12-29T14:30:40;13.80;99.90
34877;DHT22;21086;44.780;17.194;2023-12-29T14:33:07;13.80;99.90
34877;DHT22;21086;44.780;17.194;2023-12-29T14:35:34;13.80;99.90
34877;DHT22;21086;44.780;17.194;2023-12-29T14:38:02;13.80;99.90
34877;DHT22;21086;44.780;17.194;2023-12-29T14:40:31;13.80;99.90
34877;DHT22;21086;44.780;17.194;2023-12-29T14:43:01;13.80;99.90
34877;DHT22;21086;44.780;17.194;2023-12-29T14:45:29;13.60;99.90
34877;DHT22;21086;44.780;17.194;2023-12-29T14:47:59;13.50;99.90
34877;DHT22;21086;44.780;17.194;2023-12-29T14:50:27;13.60;99.90
34877;DHT22;21086;44.780;17.194;2023-12-29T14:52:54;13.60;99.90
34877;DHT22;21086;44.780;17.194;2023-12-29T14:55:21;13.50;99.90
34877;DHT22;21086;44.780;17.194;2023-12-29T14:57:48;13.50;99.90
34877;DHT22;21086;44.780;17.194;2023-12-29T15:00:16;13.50;99.90
34877;DHT22;21086;44.780;17.194;2023-12-29T15:02:43;13.60;99.90
34877;DHT22;21086;44.780;17.194;2023-12-29T15:05:10;13.50;99.90
34877;DHT22;21086;44.780;17.194;2023-12-29T15:07:37;13.50;99.90
34877;DHT22;21086;44.780;17.194;2023-12-29T15:10:04;13.40;99.90
34877;DHT22;21086;44.780;17.194;2023-12-29T15:12:32;13.40;99.90
34877;DHT22;21086;44.780;17.194;2023-12-29T15:14:58;13.40;99.90
34877;DHT22;21086;44.780;17.194;2023-12-29T15:17:26;14.00;99.90
34877;DHT22;21086;44.780;17.194;2023-12-29T15:19:53;14.00;99.90
34877;DHT22;21086;44.780;17.194;2023-12-29T15:22:20;14.00;99.90
34877;DHT22;21086;44.780;17.194;2023-12-29T15:24:48;14.30;99.90
34877;DHT22;21086;44.780;17.194;2023-12-29T15:27:15;14.30;99.90
34877;DHT22;21086;44.780;17.194;2023-12-29T15:29:42;14.20;99.90
34877;DHT22;21086;44.780;17.194;2023-12-29T15:32:09;14.20;99.90
34877;DHT22;21086;44.780;17.194;2023-12-29T15:34:36;14.10;99.90
34877;DHT22;21086;44.780;17.194;2023-12-29T15:37:03;14.10;99.90
34877;DHT22;21086;44.780;17.194;2023-12-29T15:39:32;14.00;99.90
34877;DHT22;21086;44.780;17.194;2023-12-29T15:42:00;14.30;99.90
34877;DHT22;21086;44.780;17.194;2023-12-29T15:44:27;14.90;99.90
34877;DHT22;21086;44.780;17.194;2023-12-29T15:46:54;14.70;99.90
34877;DHT22;21086;44.780;17.194;2023-12-29T15:49:23;14.50;99.90
34877;DHT22;21086;44.780;17.194;2023-12-29T15:51:50;14.30;99.90
34877;DHT22;21086;44.780;17.194;2023-12-29T15:54:18;14.10;99.90
34877;DHT22;21086;44.780;17.194;2023-12-29T15:56:45;13.80;99.90
34877;DHT22;21086;44.780;17.194;2023-12-29T15:59:12;13.60;99.90
34877;DHT22;21086;44.780;17.194;2023-12-29T16:01:39;13.50;99.90
34877;DHT22;21086;44.780;17.194;2023-12-29T16:04:07;13.40;99.90
34877;DHT22;21086;44.780;17.194;2023-12-29T16:06:34;13.30;99.90
34877;DHT22;21086;44.780;17.194;2023-12-29T16:09:04;13.20;99.90